createdAt,value
2017-08-09T00:00:28.728Z,26.91
2017-08-09T00:01:37.597Z,26.88
2017-08-09T00:02:46.439Z,26.85
2017-08-09T00:03:55.298Z,26.87
2017-08-09T00:05:04.149Z,26.81
2017-08-09T00:06:13.005Z,26.88
2017-08-09T00:07:21.858Z,26.87
2017-08-09T00:08:30.717Z,26.93
2017-08-09T00:09:39.563Z,26.9
2017-08-09T00:10:48.412Z,26.88
2017-08-09T00:11:57.266Z,26.91
2017-08-09T00:13:06.119Z,26.88
2017-08-09T00:14:14.980Z,26.93
2017-08-09T00:15:23.828Z,26.87
2017-08-09T00:16:32.703Z,26.81
2017-08-09T00:17:41.553Z,26.93
2017-08-09T00:18:50.409Z,26.9
2017-08-09T00:19:59.262Z,26.95
2017-08-09T00:21:08.120Z,26.93
2017-08-09T00:22:16.987Z,26.88
2017-08-09T00:23:25.840Z,26.9
2017-08-09T00:24:34.703Z,26.97
2017-08-09T00:25:43.549Z,26.9
2017-08-09T00:26:52.718Z,26.9
2017-08-09T00:28:01.567Z,26.85
2017-08-09T00:29:10.416Z,26.9
2017-08-09T00:30:19.595Z,26.93
2017-08-09T00:31:28.446Z,26.81
2017-08-09T00:32:37.291Z,26.93
2017-08-09T00:33:46.471Z,26.87
2017-08-09T00:34:55.328Z,26.87
2017-08-09T00:36:04.190Z,26.88
2017-08-09T00:37:13.040Z,26.91
2017-08-09T00:38:21.899Z,26.87
2017-08-09T00:39:30.755Z,26.9
2017-08-09T00:40:39.936Z,26.88
2017-08-09T00:41:48.787Z,26.91
2017-08-09T00:42:57.637Z,26.85
2017-08-09T00:44:06.488Z,26.95
2017-08-09T00:45:15.337Z,26.82
2017-08-09T00:46:24.199Z,26.93
2017-08-09T00:47:33.055Z,26.9
2017-08-09T00:48:41.897Z,26.87
2017-08-09T00:49:50.751Z,26.88
2017-08-09T00:50:59.613Z,26.77
2017-08-09T00:52:08.791Z,26.81
2017-08-09T00:53:17.637Z,26.77
2017-08-09T00:54:26.812Z,26.77
2017-08-09T00:55:35.657Z,26.78
2017-08-09T00:56:44.511Z,26.81
2017-08-09T00:57:53.471Z,26.82
2017-08-09T00:59:02.318Z,26.87
2017-08-09T01:00:11.170Z,26.85
2017-08-09T01:01:20.026Z,26.85
2017-08-09T01:02:28.885Z,26.96
2017-08-09T01:03:37.731Z,26.9
2017-08-09T01:04:46.583Z,27
2017-08-09T01:05:55.436Z,26.95
2017-08-09T01:07:04.601Z,26.88
2017-08-09T01:08:13.454Z,26.91
2017-08-09T01:09:22.309Z,26.88
2017-08-09T01:10:31.196Z,26.93
2017-08-09T01:11:40.050Z,26.9
2017-08-09T01:12:48.901Z,26.9
2017-08-09T01:13:57.757Z,26.88
2017-08-09T01:15:06.612Z,26.91
2017-08-09T01:16:15.464Z,26.97
2017-08-09T01:17:24.333Z,26.87
2017-08-09T01:18:33.501Z,26.85
2017-08-09T01:19:42.356Z,26.9
2017-08-09T01:20:51.213Z,26.87
2017-08-09T01:22:00.060Z,26.84
2017-08-09T01:23:08.912Z,26.85
2017-08-09T01:24:17.764Z,26.95
2017-08-09T01:25:26.618Z,26.95
2017-08-09T01:26:35.465Z,26.93
2017-08-09T01:27:44.320Z,26.91
2017-08-09T01:28:53.179Z,26.91
2017-08-09T01:30:02.041Z,26.87
2017-08-09T01:31:11.213Z,26.93
2017-08-09T01:32:20.060Z,26.85
2017-08-09T01:33:28.910Z,26.93
2017-08-09T01:34:37.759Z,26.91
2017-08-09T01:35:46.614Z,26.93
2017-08-09T01:36:55.463Z,26.91
2017-08-09T01:38:04.312Z,26.8
2017-08-09T01:39:13.169Z,26.78
2017-08-09T01:40:22.030Z,26.85
2017-08-09T01:41:30.881Z,26.93
2017-08-09T01:42:39.734Z,26.82
2017-08-09T01:43:48.597Z,26.8
2017-08-09T01:44:57.445Z,26.84
2017-08-09T01:46:06.610Z,26.87
2017-08-09T01:47:15.471Z,26.81
2017-08-09T01:48:24.320Z,26.84
2017-08-09T01:49:33.176Z,26.9
2017-08-09T01:50:42.025Z,26.9
2017-08-09T01:51:50.883Z,26.85
2017-08-09T01:52:59.738Z,26.82
2017-08-09T01:54:08.606Z,26.91
2017-08-09T01:55:17.774Z,26.82
2017-08-09T01:56:26.632Z,26.95
2017-08-09T01:57:35.488Z,26.93
2017-08-09T01:58:44.333Z,26.85
2017-08-09T01:59:53.185Z,26.87
2017-08-09T02:01:02.040Z,26.87
2017-08-09T02:02:11.210Z,26.93
2017-08-09T02:03:20.061Z,26.95
2017-08-09T02:04:28.915Z,26.93
2017-08-09T02:05:37.768Z,26.99
2017-08-09T02:06:46.625Z,26.99
2017-08-09T02:07:55.483Z,26.96
2017-08-09T02:09:04.341Z,26.99
2017-08-09T02:10:13.196Z,27
2017-08-09T02:11:22.045Z,26.93
2017-08-09T02:12:30.896Z,26.91
2017-08-09T02:13:39.748Z,26.95
2017-08-09T02:14:48.602Z,26.95
2017-08-09T02:15:57.453Z,26.93
2017-08-09T02:17:06.309Z,26.93
2017-08-09T02:18:15.160Z,26.93
2017-08-09T02:19:24.332Z,26.95
2017-08-09T02:20:33.184Z,26.87
2017-08-09T02:21:42.351Z,26.91
2017-08-09T02:22:51.202Z,26.93
2017-08-09T02:24:00.060Z,26.9
2017-08-09T02:25:08.911Z,26.93
2017-08-09T02:26:17.761Z,26.96
2017-08-09T02:27:26.615Z,26.97
2017-08-09T02:28:35.463Z,26.96
2017-08-09T02:29:44.321Z,26.91
2017-08-09T02:30:53.219Z,26.88
2017-08-09T02:32:02.071Z,26.91
2017-08-09T02:33:11.251Z,26.85
2017-08-09T02:34:20.106Z,26.87
2017-08-09T02:35:28.964Z,26.93
2017-08-09T02:36:37.816Z,26.9
2017-08-09T02:37:46.671Z,26.9
2017-08-09T02:38:55.518Z,26.9
2017-08-09T02:40:04.385Z,26.91
2017-08-09T02:41:13.242Z,26.8
2017-08-09T02:42:22.092Z,26.88
2017-08-09T02:43:30.938Z,26.9
2017-08-09T02:44:39.801Z,26.9
2017-08-09T02:45:48.651Z,26.85
2017-08-09T02:46:57.507Z,26.93
2017-08-09T02:48:06.678Z,26.91
2017-08-09T02:49:15.558Z,26.93
2017-08-09T02:50:24.404Z,26.97
2017-08-09T02:51:33.263Z,26.87
2017-08-09T02:52:42.124Z,26.93
2017-08-09T02:53:50.972Z,26.9
2017-08-09T02:54:59.823Z,26.82
2017-08-09T02:56:08.672Z,26.91
2017-08-09T02:57:17.539Z,26.84
2017-08-09T02:58:26.410Z,26.85
2017-08-09T02:59:35.254Z,26.81
2017-08-09T03:00:44.105Z,26.8
2017-08-09T03:01:52.963Z,26.82
2017-08-09T03:03:01.820Z,26.82
2017-08-09T03:04:11.295Z,26.82
2017-08-09T03:05:20.153Z,26.88
2017-08-09T03:06:29.007Z,26.8
2017-08-09T03:07:37.858Z,26.8
2017-08-09T03:08:46.710Z,26.85
2017-08-09T03:09:55.570Z,26.85
2017-08-09T03:11:04.750Z,26.77
2017-08-09T03:12:13.600Z,26.8
2017-08-09T03:13:22.452Z,26.84
2017-08-09T03:14:31.309Z,26.81
2017-08-09T03:15:40.163Z,26.73
2017-08-09T03:16:49.016Z,26.75
2017-08-09T03:17:57.870Z,26.82
2017-08-09T03:19:06.724Z,26.81
2017-08-09T03:20:15.580Z,26.77
2017-08-09T03:21:24.427Z,26.75
2017-08-09T03:22:33.280Z,26.78
2017-08-09T03:23:42.134Z,26.78
2017-08-09T03:24:50.989Z,26.78
2017-08-09T03:25:59.840Z,26.77
2017-08-09T03:27:08.692Z,26.7
2017-08-09T03:28:17.543Z,26.72
2017-08-09T03:29:26.706Z,26.75
2017-08-09T03:30:35.573Z,26.7
2017-08-09T03:31:44.444Z,26.72
2017-08-09T03:32:53.300Z,26.75
2017-08-09T03:34:02.168Z,26.68
2017-08-09T03:35:11.023Z,26.68
2017-08-09T03:36:19.887Z,26.7
2017-08-09T03:37:28.735Z,26.7
2017-08-09T03:38:37.585Z,26.75
2017-08-09T03:39:46.441Z,26.7
2017-08-09T03:40:55.299Z,26.77
2017-08-09T03:42:04.164Z,26.69
2017-08-09T03:43:13.327Z,26.75
2017-08-09T03:44:22.188Z,26.77
2017-08-09T03:45:31.039Z,26.72
2017-08-09T03:46:39.896Z,26.62
2017-08-09T03:47:48.766Z,26.7
2017-08-09T03:48:57.616Z,26.72
2017-08-09T03:50:06.469Z,26.72
2017-08-09T03:51:15.314Z,26.7
2017-08-09T03:52:24.166Z,26.62
2017-08-09T03:53:33.022Z,26.72
2017-08-09T03:54:41.875Z,26.65
2017-08-09T03:55:50.722Z,26.63
2017-08-09T03:56:59.888Z,26.62
2017-08-09T03:58:08.762Z,26.7
2017-08-09T03:59:17.613Z,26.66
2017-08-09T04:00:26.468Z,26.62
2017-08-09T04:01:35.636Z,26.62
2017-08-09T04:02:44.487Z,26.62
2017-08-09T04:03:53.342Z,26.63
2017-08-09T04:05:02.195Z,26.7
2017-08-09T04:06:11.048Z,26.65
2017-08-09T04:07:19.902Z,26.69
2017-08-09T04:08:28.750Z,26.6
2017-08-09T04:09:37.597Z,26.66
2017-08-09T04:10:46.462Z,26.6
2017-08-09T04:11:55.313Z,26.63
2017-08-09T04:13:04.486Z,26.7
2017-08-09T04:14:13.332Z,26.62
2017-08-09T04:15:22.185Z,26.58
2017-08-09T04:16:31.034Z,26.6
2017-08-09T04:17:39.882Z,26.58
2017-08-09T04:18:48.744Z,26.68
2017-08-09T04:19:57.604Z,26.62
2017-08-09T04:21:06.464Z,26.62
2017-08-09T04:22:15.331Z,26.65
2017-08-09T04:23:24.493Z,26.66
2017-08-09T04:24:33.356Z,26.55
2017-08-09T04:25:42.207Z,26.53
2017-08-09T04:26:51.064Z,26.59
2017-08-09T04:27:59.935Z,26.55
2017-08-09T04:29:08.788Z,26.6
2017-08-09T04:30:17.637Z,26.55
2017-08-09T04:31:26.484Z,26.55
2017-08-09T04:32:35.339Z,26.62
2017-08-09T04:33:44.199Z,26.54
2017-08-09T04:34:53.051Z,26.58
2017-08-09T04:36:01.902Z,26.6
2017-08-09T04:37:10.749Z,26.48
2017-08-09T04:38:19.919Z,26.53
2017-08-09T04:39:28.785Z,26.6
2017-08-09T04:40:37.642Z,26.62
2017-08-09T04:41:46.495Z,26.58
2017-08-09T04:42:55.343Z,26.58
2017-08-09T04:44:04.196Z,26.6
2017-08-09T04:45:13.042Z,26.51
2017-08-09T04:46:21.902Z,26.54
2017-08-09T04:47:30.752Z,26.55
2017-08-09T04:48:39.630Z,26.48
2017-08-09T04:49:48.481Z,26.44
2017-08-09T04:50:57.333Z,26.48
2017-08-09T04:52:06.190Z,26.48
2017-08-09T04:53:15.041Z,26.5
2017-08-09T04:54:24.216Z,26.54
2017-08-09T04:55:33.061Z,26.45
2017-08-09T04:56:41.907Z,26.51
2017-08-09T04:57:50.762Z,26.51
2017-08-09T04:58:59.616Z,26.55
2017-08-09T05:00:08.471Z,26.48
2017-08-09T05:01:17.639Z,26.53
2017-08-09T05:02:26.490Z,26.55
2017-08-09T05:03:35.349Z,26.48
2017-08-09T05:04:44.199Z,26.51
2017-08-09T05:05:53.046Z,26.48
2017-08-09T05:07:01.903Z,26.44
2017-08-09T05:08:10.760Z,26.53
2017-08-09T05:09:19.625Z,26.4
2017-08-09T05:10:28.472Z,26.45
2017-08-09T05:11:37.325Z,26.45
2017-08-09T05:12:46.188Z,26.44
2017-08-09T05:13:55.037Z,26.35
2017-08-09T05:15:03.887Z,26.4
2017-08-09T05:16:12.738Z,26.38
2017-08-09T05:17:21.904Z,26.29
2017-08-09T05:18:30.761Z,26.4
2017-08-09T05:19:39.632Z,26.43
2017-08-09T05:20:48.479Z,26.38
2017-08-09T05:21:57.332Z,26.4
2017-08-09T05:23:06.191Z,26.5
2017-08-09T05:24:15.041Z,26.38
2017-08-09T05:25:23.892Z,26.38
2017-08-09T05:26:32.744Z,26.33
2017-08-09T05:27:41.614Z,26.41
2017-08-09T05:28:50.473Z,26.33
2017-08-09T05:29:59.326Z,26.44
2017-08-09T05:31:08.177Z,26.38
2017-08-09T05:32:17.030Z,26.36
2017-08-09T05:33:26.206Z,26.41
2017-08-09T05:34:35.368Z,26.47
2017-08-09T05:35:44.223Z,26.47
2017-08-09T05:36:53.070Z,26.38
2017-08-09T05:38:01.915Z,26.44
2017-08-09T05:39:10.774Z,26.38
2017-08-09T05:40:19.947Z,26.41
2017-08-09T05:41:28.798Z,26.48
2017-08-09T05:42:37.652Z,26.47
2017-08-09T05:43:46.503Z,26.41
2017-08-09T05:44:55.670Z,26.51
2017-08-09T05:46:04.522Z,26.47
2017-08-09T05:47:13.375Z,26.53
2017-08-09T05:48:22.222Z,26.47
2017-08-09T05:49:31.078Z,26.53
2017-08-09T05:50:39.925Z,26.47
2017-08-09T05:51:48.776Z,26.53
2017-08-09T05:52:57.627Z,26.5
2017-08-09T05:54:06.476Z,26.51
2017-08-09T05:55:15.349Z,26.47
2017-08-09T05:56:24.206Z,26.54
2017-08-09T05:57:33.055Z,26.5
2017-08-09T05:58:42.229Z,26.48
2017-08-09T05:59:51.084Z,26.48
2017-08-09T06:00:59.937Z,26.47
2017-08-09T06:02:08.791Z,26.45
2017-08-09T06:03:17.646Z,26.58
2017-08-09T06:04:26.820Z,26.48
2017-08-09T06:05:35.984Z,26.55
2017-08-09T06:06:44.843Z,26.51
2017-08-09T06:07:54.011Z,26.48
2017-08-09T06:09:02.863Z,26.55
2017-08-09T06:10:11.721Z,26.54
2017-08-09T06:11:20.582Z,26.44
2017-08-09T06:12:29.435Z,26.54
2017-08-09T06:13:38.282Z,26.5
2017-08-09T06:14:47.128Z,26.44
2017-08-09T06:15:55.983Z,26.48
2017-08-09T06:17:04.840Z,26.44
2017-08-09T06:18:13.709Z,26.51
2017-08-09T06:19:22.563Z,26.4
2017-08-09T06:20:31.425Z,26.35
2017-08-09T06:21:40.284Z,26.44
2017-08-09T06:22:49.142Z,26.47
2017-08-09T06:23:58.003Z,26.53
2017-08-09T06:25:06.852Z,26.45
2017-08-09T06:26:15.714Z,26.44
2017-08-09T06:27:24.558Z,26.41
2017-08-09T06:28:33.421Z,26.45
2017-08-09T06:29:42.599Z,26.45
2017-08-09T06:30:51.770Z,26.48
2017-08-09T06:32:00.624Z,26.48
2017-08-09T06:33:09.483Z,26.5
2017-08-09T06:34:18.335Z,26.45
2017-08-09T06:35:27.191Z,26.41
2017-08-09T06:36:36.053Z,26.4
2017-08-09T06:37:44.902Z,26.48
2017-08-09T06:38:53.754Z,26.48
2017-08-09T06:40:02.613Z,26.47
2017-08-09T06:41:11.472Z,26.58
2017-08-09T06:42:20.315Z,26.58
2017-08-09T06:43:29.170Z,26.54
2017-08-09T06:44:38.029Z,26.51
2017-08-09T06:45:46.880Z,26.54
2017-08-09T06:46:55.734Z,26.51
2017-08-09T06:48:04.600Z,26.58
2017-08-09T06:49:13.462Z,26.48
2017-08-09T06:50:22.317Z,26.51
2017-08-09T06:51:31.168Z,26.53
2017-08-09T06:52:40.018Z,26.51
2017-08-09T06:53:49.200Z,26.48
2017-08-09T06:54:58.054Z,26.53
2017-08-09T06:56:06.897Z,26.51
2017-08-09T06:57:15.753Z,26.53
2017-08-09T06:58:24.602Z,26.44
2017-08-09T06:59:33.472Z,26.4
2017-08-09T07:00:42.318Z,26.48
2017-08-09T07:01:51.171Z,26.47
2017-08-09T07:03:00.354Z,26.45
2017-08-09T07:04:09.208Z,26.45
2017-08-09T07:05:18.066Z,26.45
2017-08-09T07:06:26.919Z,26.41
2017-08-09T07:07:35.766Z,26.5
2017-08-09T07:08:44.618Z,26.38
2017-08-09T07:09:53.470Z,26.44
2017-08-09T07:11:02.632Z,26.43
2017-08-09T07:12:11.487Z,26.36
2017-08-09T07:13:20.662Z,26.38
2017-08-09T07:14:29.511Z,26.48
2017-08-09T07:15:38.690Z,26.53
2017-08-09T07:16:47.541Z,26.4
2017-08-09T07:17:56.414Z,26.51
2017-08-09T07:19:05.267Z,26.45
2017-08-09T07:20:14.120Z,26.5
2017-08-09T07:21:22.977Z,26.48
2017-08-09T07:22:31.833Z,26.45
2017-08-09T07:23:40.692Z,26.47
2017-08-09T07:24:49.547Z,26.51
2017-08-09T07:25:58.406Z,26.43
2017-08-09T07:27:07.581Z,26.48
2017-08-09T07:28:16.431Z,26.48
2017-08-09T07:29:25.285Z,26.47
2017-08-09T07:30:34.137Z,26.5
2017-08-09T07:31:42.989Z,26.5
2017-08-09T07:32:51.849Z,26.5
2017-08-09T07:34:00.696Z,26.51
2017-08-09T07:35:09.546Z,26.44
2017-08-09T07:36:18.411Z,26.45
2017-08-09T07:37:27.270Z,26.4
2017-08-09T07:38:36.120Z,26.41
2017-08-09T07:39:44.981Z,26.43
2017-08-09T07:40:53.833Z,26.45
2017-08-09T07:42:02.685Z,26.4
2017-08-09T07:43:11.534Z,26.48
2017-08-09T07:44:20.709Z,26.5
2017-08-09T07:45:29.561Z,26.54
2017-08-09T07:46:38.410Z,26.51
2017-08-09T07:47:47.260Z,26.53
2017-08-09T07:48:56.431Z,26.5
2017-08-09T07:50:05.282Z,26.53
2017-08-09T07:51:14.139Z,26.48
2017-08-09T07:52:22.993Z,26.5
2017-08-09T07:53:31.851Z,26.4
2017-08-09T07:54:40.700Z,26.44
2017-08-09T07:55:49.550Z,26.4
2017-08-09T07:56:58.402Z,26.4
2017-08-09T07:58:07.258Z,26.44
2017-08-09T07:59:16.109Z,26.43
2017-08-09T08:00:24.971Z,26.44
2017-08-09T08:01:33.830Z,26.4
2017-08-09T08:02:43.001Z,26.45
2017-08-09T08:03:51.859Z,26.45
2017-08-09T08:05:00.715Z,26.47
2017-08-09T08:06:09.565Z,26.51
2017-08-09T08:07:18.421Z,26.53
2017-08-09T08:08:27.272Z,26.53
2017-08-09T08:09:36.126Z,26.51
2017-08-09T08:10:44.981Z,26.53
2017-08-09T08:11:53.828Z,26.59
2017-08-09T08:13:02.677Z,26.5
2017-08-09T08:14:11.533Z,26.48
2017-08-09T08:15:20.698Z,26.47
2017-08-09T08:16:29.556Z,26.48
2017-08-09T08:17:38.402Z,26.58
2017-08-09T08:18:47.259Z,26.51
2017-08-09T08:19:56.111Z,26.55
2017-08-09T08:21:04.968Z,26.47
2017-08-09T08:22:13.825Z,26.55
2017-08-09T08:23:22.678Z,26.45
2017-08-09T08:24:31.860Z,26.51
2017-08-09T08:25:40.755Z,26.59
2017-08-09T08:26:49.611Z,26.51
2017-08-09T08:27:58.469Z,26.54
2017-08-09T08:29:07.318Z,26.48
2017-08-09T08:30:16.177Z,26.51
2017-08-09T08:31:25.040Z,26.48
2017-08-09T08:32:33.892Z,26.5
2017-08-09T08:33:42.742Z,26.48
2017-08-09T08:34:51.605Z,26.48
2017-08-09T08:36:00.459Z,26.48
2017-08-09T08:37:09.312Z,26.43
2017-08-09T08:38:18.184Z,26.51
2017-08-09T08:39:27.037Z,26.43
2017-08-09T08:40:35.898Z,26.44
2017-08-09T08:41:44.752Z,26.45
2017-08-09T08:42:53.611Z,26.36
2017-08-09T08:44:02.461Z,26.45
2017-08-09T08:45:11.322Z,26.51
2017-08-09T08:46:20.169Z,26.53
2017-08-09T08:47:29.022Z,26.53
2017-08-09T08:48:37.875Z,26.48
2017-08-09T08:49:46.732Z,26.5
2017-08-09T08:50:55.583Z,26.54
2017-08-09T08:52:04.436Z,26.54
2017-08-09T08:53:13.283Z,26.62
2017-08-09T08:54:22.137Z,26.66
2017-08-09T08:55:30.993Z,26.62
2017-08-09T08:56:39.848Z,26.59
2017-08-09T08:57:48.692Z,26.55
2017-08-09T08:58:57.562Z,26.53
2017-08-09T09:00:06.410Z,26.6
2017-08-09T09:01:15.273Z,26.68
2017-08-09T09:02:24.117Z,26.59
2017-08-09T09:03:32.966Z,26.69
2017-08-09T09:04:41.817Z,26.6
2017-08-09T09:05:50.675Z,26.55
2017-08-09T09:06:59.534Z,26.58
2017-08-09T09:08:08.386Z,26.59
2017-08-09T09:09:17.240Z,26.65
2017-08-09T09:10:26.094Z,26.6
2017-08-09T09:11:34.949Z,26.62
2017-08-09T09:12:43.797Z,26.7
2017-08-09T09:13:52.658Z,26.65
2017-08-09T09:15:01.510Z,26.69
2017-08-09T09:16:10.365Z,26.65
2017-08-09T09:17:19.536Z,26.69
2017-08-09T09:18:28.387Z,26.7
2017-08-09T09:19:37.246Z,26.72
2017-08-09T09:20:46.097Z,26.66
2017-08-09T09:21:54.944Z,26.68
2017-08-09T09:23:04.119Z,26.59
2017-08-09T09:24:12.968Z,26.6
2017-08-09T09:25:21.819Z,26.6
2017-08-09T09:26:30.673Z,26.63
2017-08-09T09:27:39.526Z,26.6
2017-08-09T09:28:48.374Z,26.7
2017-08-09T09:29:57.227Z,26.66
2017-08-09T09:31:06.077Z,26.73
2017-08-09T09:32:14.933Z,26.68
2017-08-09T09:33:23.787Z,26.63
2017-08-09T09:34:32.960Z,26.68
2017-08-09T09:35:41.814Z,26.69
2017-08-09T09:36:50.984Z,26.73
2017-08-09T09:37:59.834Z,26.75
2017-08-09T09:39:09.000Z,26.75
2017-08-09T09:40:17.853Z,26.78
2017-08-09T09:41:26.700Z,26.75
2017-08-09T09:42:35.562Z,26.68
2017-08-09T09:43:44.412Z,26.68
2017-08-09T09:44:53.266Z,26.75
2017-08-09T09:46:02.124Z,26.69
2017-08-09T09:47:10.980Z,26.7
2017-08-09T09:48:19.841Z,26.8
2017-08-09T09:49:28.695Z,26.84
2017-08-09T09:50:37.536Z,26.75
2017-08-09T09:51:46.388Z,26.81
2017-08-09T09:52:55.238Z,26.72
2017-08-09T09:54:04.103Z,26.82
2017-08-09T09:55:12.954Z,26.73
2017-08-09T09:56:21.806Z,26.72
2017-08-09T09:57:30.650Z,26.82
2017-08-09T09:58:39.501Z,26.65
2017-08-09T09:59:48.348Z,26.84
2017-08-09T10:00:57.207Z,26.77
2017-08-09T10:02:06.063Z,26.84
2017-08-09T10:03:15.235Z,26.81
2017-08-09T10:04:24.090Z,26.8
2017-08-09T10:05:32.940Z,26.8
2017-08-09T10:06:42.122Z,26.78
2017-08-09T10:07:50.970Z,26.68
2017-08-09T10:09:00.141Z,26.73
2017-08-09T10:10:08.999Z,26.78
2017-08-09T10:11:17.867Z,26.73
2017-08-09T10:12:26.720Z,26.84
2017-08-09T10:13:35.573Z,26.78
2017-08-09T10:14:44.432Z,26.78
2017-08-09T10:15:53.280Z,26.78
2017-08-09T10:17:02.142Z,26.81
2017-08-09T10:18:10.994Z,26.8
2017-08-09T10:19:19.843Z,26.82
2017-08-09T10:20:28.696Z,26.81
2017-08-09T10:21:37.878Z,26.84
2017-08-09T10:22:46.741Z,26.84
2017-08-09T10:23:55.587Z,26.8
2017-08-09T10:25:04.439Z,26.77
2017-08-09T10:26:13.291Z,26.84
2017-08-09T10:27:22.139Z,26.84
2017-08-09T10:28:31.306Z,26.81
2017-08-09T10:29:40.164Z,26.8
2017-08-09T10:30:49.014Z,26.78
2017-08-09T10:31:57.872Z,26.81
2017-08-09T10:33:07.049Z,26.81
2017-08-09T10:34:15.897Z,26.84
2017-08-09T10:35:24.753Z,26.82
2017-08-09T10:36:33.601Z,26.78
2017-08-09T10:37:42.756Z,26.77
2017-08-09T10:38:51.617Z,26.85
2017-08-09T10:40:00.463Z,26.8
2017-08-09T10:41:09.317Z,26.87
2017-08-09T10:42:18.815Z,26.93
2017-08-09T10:43:27.660Z,26.87
2017-08-09T10:44:36.520Z,26.91
2017-08-09T10:45:45.370Z,26.87
2017-08-09T10:46:54.223Z,26.87
2017-08-09T10:48:03.385Z,26.87
2017-08-09T10:49:12.244Z,26.93
2017-08-09T10:50:21.413Z,26.88
2017-08-09T10:51:30.584Z,26.81
2017-08-09T10:52:39.433Z,26.91
2017-08-09T10:53:48.283Z,26.81
2017-08-09T10:54:57.130Z,26.93
2017-08-09T10:56:05.982Z,26.93
2017-08-09T10:57:14.859Z,26.93
2017-08-09T10:58:23.718Z,26.84
2017-08-09T10:59:32.582Z,26.84
2017-08-09T11:00:41.428Z,26.88
2017-08-09T11:01:50.289Z,26.9
2017-08-09T11:02:59.157Z,26.93
2017-08-09T11:04:08.019Z,26.88
2017-08-09T11:05:16.863Z,26.81
2017-08-09T11:06:25.727Z,26.85
2017-08-09T11:07:34.576Z,26.88
2017-08-09T11:08:43.422Z,26.84
2017-08-09T11:09:52.277Z,26.91
2017-08-09T11:11:01.135Z,26.88
2017-08-09T11:12:09.989Z,26.91
2017-08-09T11:13:18.837Z,26.95
2017-08-09T11:14:27.691Z,26.96
2017-08-09T11:15:36.545Z,26.91
2017-08-09T11:16:45.403Z,26.97
2017-08-09T11:17:54.268Z,26.91
2017-08-09T11:19:03.115Z,26.93
2017-08-09T11:20:12.301Z,26.95
2017-08-09T11:21:21.154Z,26.93
2017-08-09T11:22:30.010Z,26.96
2017-08-09T11:23:38.863Z,26.87
2017-08-09T11:24:47.718Z,26.97
2017-08-09T11:25:56.565Z,26.97
2017-08-09T11:27:05.416Z,26.9
2017-08-09T11:28:14.281Z,26.93
2017-08-09T11:29:23.134Z,26.87
2017-08-09T11:30:31.988Z,26.95
2017-08-09T11:31:40.839Z,26.95
2017-08-09T11:32:49.689Z,26.97
2017-08-09T11:33:58.545Z,26.97
2017-08-09T11:35:07.409Z,26.9
2017-08-09T11:36:16.278Z,26.9
2017-08-09T11:37:25.140Z,26.96
2017-08-09T11:38:33.994Z,26.96
2017-08-09T11:39:42.848Z,27
2017-08-09T11:40:51.699Z,26.99
2017-08-09T11:42:00.556Z,27
2017-08-09T11:43:09.437Z,27.05
2017-08-09T11:44:18.609Z,26.93
2017-08-09T11:45:27.468Z,26.99
2017-08-09T11:46:36.319Z,26.99
2017-08-09T11:47:45.168Z,26.97
2017-08-09T11:48:54.031Z,27.02
2017-08-09T11:50:02.878Z,26.97
2017-08-09T11:51:11.740Z,26.95
2017-08-09T11:52:20.608Z,27.02
2017-08-09T11:53:29.455Z,27.07
2017-08-09T11:54:38.308Z,27.02
2017-08-09T11:55:47.157Z,27.07
2017-08-09T11:56:56.016Z,27.07
2017-08-09T11:58:04.895Z,27.1
2017-08-09T11:59:13.752Z,27.09
2017-08-09T12:00:22.606Z,27.1
2017-08-09T12:01:31.453Z,27.14
2017-08-09T12:02:40.309Z,27.14
2017-08-09T12:03:49.163Z,27.09
2017-08-09T12:04:58.013Z,27.09
2017-08-09T12:06:06.871Z,27.06
2017-08-09T12:07:15.723Z,27.05
2017-08-09T12:08:24.576Z,27.07
2017-08-09T12:09:33.438Z,27.06
2017-08-09T12:10:42.296Z,27.17
2017-08-09T12:11:51.149Z,27.1
2017-08-09T12:12:59.997Z,27.05
2017-08-09T12:14:08.847Z,27.1
2017-08-09T12:15:18.028Z,27.1
2017-08-09T12:16:26.882Z,27.14
2017-08-09T12:17:35.735Z,27.09
2017-08-09T12:18:44.585Z,27.17
2017-08-09T12:19:53.443Z,27.25
2017-08-09T12:21:02.304Z,27.17
2017-08-09T12:22:11.156Z,27.17
2017-08-09T12:23:20.026Z,27.18
2017-08-09T12:24:28.881Z,27.22
2017-08-09T12:25:37.733Z,27.17
2017-08-09T12:26:46.587Z,27.21
2017-08-09T12:27:55.446Z,27.2
2017-08-09T12:29:04.307Z,27.15
2017-08-09T12:30:13.168Z,27.22
2017-08-09T12:31:22.032Z,27.18
2017-08-09T12:32:30.891Z,27.25
2017-08-09T12:33:39.752Z,27.2
2017-08-09T12:34:48.605Z,27.21
2017-08-09T12:35:57.462Z,27.34
2017-08-09T12:37:06.320Z,27.28
2017-08-09T12:38:15.175Z,27.32
2017-08-09T12:39:24.031Z,27.25
2017-08-09T12:40:32.886Z,27.28
2017-08-09T12:41:41.745Z,27.27
2017-08-09T12:42:50.596Z,27.36
2017-08-09T12:43:59.463Z,27.32
2017-08-09T12:45:08.326Z,27.22
2017-08-09T12:46:17.180Z,27.22
2017-08-09T12:47:26.342Z,27.34
2017-08-09T12:48:35.200Z,27.28
2017-08-09T12:49:44.055Z,27.33
2017-08-09T12:50:52.909Z,27.34
2017-08-09T12:52:01.763Z,27.36
2017-08-09T12:53:10.617Z,27.44
2017-08-09T12:54:19.780Z,27.44
2017-08-09T12:55:28.632Z,27.34
2017-08-09T12:56:37.479Z,27.36
2017-08-09T12:57:46.336Z,27.47
2017-08-09T12:58:55.192Z,27.44
2017-08-09T13:00:04.044Z,27.39
2017-08-09T13:01:12.902Z,27.4
2017-08-09T13:02:22.078Z,27.43
2017-08-09T13:03:30.927Z,27.39
2017-08-09T13:04:39.783Z,27.43
2017-08-09T13:05:48.643Z,27.47
2017-08-09T13:06:57.494Z,27.55
2017-08-09T13:08:06.353Z,27.49
2017-08-09T13:09:15.202Z,27.58
2017-08-09T13:10:24.053Z,27.54
2017-08-09T13:11:32.907Z,27.47
2017-08-09T13:12:41.768Z,27.54
2017-08-09T13:13:50.945Z,27.62
2017-08-09T13:14:59.797Z,27.58
2017-08-09T13:16:08.660Z,27.58
2017-08-09T13:17:17.512Z,27.6
2017-08-09T13:18:26.691Z,27.58
2017-08-09T13:19:35.541Z,27.6
2017-08-09T13:20:44.712Z,27.55
2017-08-09T13:21:53.563Z,27.62
2017-08-09T13:23:02.414Z,27.65
2017-08-09T13:24:11.590Z,27.66
2017-08-09T13:25:20.440Z,27.63
2017-08-09T13:26:29.291Z,27.71
2017-08-09T13:27:38.140Z,27.72
2017-08-09T13:28:46.992Z,27.74
2017-08-09T13:29:55.853Z,27.82
2017-08-09T13:31:04.710Z,27.75
2017-08-09T13:32:13.557Z,27.75
2017-08-09T13:33:22.408Z,27.85
2017-08-09T13:34:31.264Z,27.75
2017-08-09T13:35:40.115Z,27.75
2017-08-09T13:36:48.968Z,27.87
2017-08-09T13:37:57.821Z,27.81
2017-08-09T13:39:06.675Z,27.75
2017-08-09T13:40:15.531Z,27.75
2017-08-09T13:41:24.710Z,27.85
2017-08-09T13:42:33.567Z,27.89
2017-08-09T13:43:42.736Z,27.89
2017-08-09T13:44:51.592Z,27.85
2017-08-09T13:46:00.762Z,27.84
2017-08-09T13:47:09.614Z,27.87
2017-08-09T13:48:18.468Z,27.89
2017-08-09T13:49:27.323Z,27.87
2017-08-09T13:50:36.178Z,27.81
2017-08-09T13:51:45.029Z,27.96
2017-08-09T13:52:53.886Z,27.85
2017-08-09T13:54:02.741Z,27.89
2017-08-09T13:55:11.599Z,27.84
2017-08-09T13:56:20.473Z,27.85
2017-08-09T13:57:29.321Z,27.92
2017-08-09T13:58:38.178Z,27.97
2017-08-09T13:59:47.034Z,27.94
2017-08-09T14:00:55.887Z,27.93
2017-08-09T14:02:04.739Z,27.93
2017-08-09T14:03:13.587Z,27.9
2017-08-09T14:04:22.436Z,27.92
2017-08-09T14:05:31.293Z,27.97
2017-08-09T14:06:40.147Z,27.96
2017-08-09T14:07:49.012Z,27.96
2017-08-09T14:08:58.173Z,27.93
2017-08-09T14:10:07.346Z,27.93
2017-08-09T14:11:16.199Z,27.93
2017-08-09T14:12:25.054Z,27.97
2017-08-09T14:13:34.224Z,27.94
2017-08-09T14:14:43.076Z,28.03
2017-08-09T14:15:51.927Z,28.03
2017-08-09T14:17:00.779Z,28.02
2017-08-09T14:18:09.634Z,28.12
2017-08-09T14:19:18.513Z,28.05
2017-08-09T14:20:27.364Z,28.05
2017-08-09T14:21:36.221Z,28.07
2017-08-09T14:22:45.081Z,28.11
2017-08-09T14:23:53.933Z,28.21
2017-08-09T14:25:02.789Z,28.18
2017-08-09T14:26:11.638Z,28.26
2017-08-09T14:27:20.489Z,28.19
2017-08-09T14:28:29.343Z,28.21
2017-08-09T14:29:38.204Z,28.17
2017-08-09T14:30:47.051Z,28.19
2017-08-09T14:31:55.929Z,28.24
2017-08-09T14:33:04.775Z,28.27
2017-08-09T14:34:13.629Z,28.21
2017-08-09T14:35:22.494Z,28.27
2017-08-09T14:36:31.351Z,28.24
2017-08-09T14:37:40.205Z,28.36
2017-08-09T14:38:49.062Z,28.34
2017-08-09T14:39:57.913Z,28.34
2017-08-09T14:41:06.781Z,28.42
2017-08-09T14:42:15.639Z,28.4
2017-08-09T14:43:24.500Z,28.4
2017-08-09T14:44:33.345Z,28.48
2017-08-09T14:45:42.203Z,28.46
2017-08-09T14:46:51.050Z,28.46
2017-08-09T14:47:59.905Z,28.46
2017-08-09T14:49:08.768Z,28.51
2017-08-09T14:50:17.618Z,28.54
2017-08-09T14:51:26.467Z,28.49